createdAt,value
2018-09-23T00:03:09.656Z,10.20
2018-09-23T00:05:38.588Z,10.20
2018-09-23T00:08:07.928Z,10.20
2018-09-23T00:10:36.902Z,10.20
2018-09-23T00:13:05.860Z,10.20
2018-09-23T00:15:34.901Z,10.30
2018-09-23T00:18:03.730Z,10.20
2018-09-23T00:20:33.155Z,10.20
2018-09-23T00:23:02.674Z,10.20
2018-09-23T00:25:32.622Z,10.20
2018-09-23T00:28:02.696Z,10.20
2018-09-23T00:30:32.245Z,10.20
2018-09-23T00:33:01.643Z,10.20
2018-09-23T00:35:31.330Z,10.10
2018-09-23T00:38:00.087Z,10.10
2018-09-23T00:40:28.879Z,10.10
2018-09-23T00:42:57.699Z,10.00
2018-09-23T00:45:26.518Z,10.00
2018-09-23T00:47:55.306Z,10.00
2018-09-23T00:50:24.082Z,10.00
2018-09-23T00:52:53.646Z,10.00
2018-09-23T00:55:25.259Z,9.90
2018-09-23T00:57:54.071Z,9.90
2018-09-23T01:00:22.877Z,9.90
2018-09-23T01:02:51.678Z,9.80
2018-09-23T01:05:20.653Z,9.80
2018-09-23T01:07:49.413Z,9.80
2018-09-23T01:10:18.218Z,9.80
2018-09-23T01:12:47.030Z,9.90
2018-09-23T01:15:16.049Z,9.90
2018-09-23T01:17:45.350Z,9.90
2018-09-23T01:20:14.841Z,9.90
2018-09-23T01:22:43.691Z,9.90
2018-09-23T01:25:12.473Z,9.90
2018-09-23T01:27:43.222Z,9.80
2018-09-23T01:30:12.028Z,9.80
2018-09-23T01:32:41.946Z,9.90
2018-09-23T01:35:10.719Z,9.80
2018-09-23T01:37:40.666Z,9.80
2018-09-23T01:40:10.442Z,9.80
2018-09-23T01:42:39.308Z,9.80
2018-09-23T01:45:08.200Z,9.80
2018-09-23T01:47:37.296Z,9.80
2018-09-23T01:50:07.963Z,9.90
2018-09-23T01:52:37.147Z,9.90
2018-09-23T01:55:06.169Z,9.80
2018-09-23T01:57:34.990Z,9.80
2018-09-23T02:00:04.575Z,9.90
2018-09-23T02:02:33.806Z,9.80
2018-09-23T02:05:03.202Z,9.80
2018-09-23T02:07:32.161Z,9.80
2018-09-23T02:10:00.970Z,9.80
2018-09-23T02:12:30.638Z,9.80
2018-09-23T02:14:59.430Z,9.80
2018-09-23T02:17:29.634Z,9.90
2018-09-23T02:19:58.711Z,9.90
2018-09-23T02:22:27.535Z,9.90
2018-09-23T02:24:56.434Z,9.90
2018-09-23T02:27:25.222Z,9.90
2018-09-23T02:29:54.394Z,10.00
2018-09-23T02:32:23.219Z,10.00
2018-09-23T02:34:52.002Z,10.10
2018-09-23T02:37:20.822Z,10.10
2018-09-23T02:39:49.601Z,10.10
2018-09-23T02:42:18.581Z,10.00
2018-09-23T02:44:47.467Z,9.90
2018-09-23T02:47:16.218Z,10.00
2018-09-23T02:49:45.451Z,9.90
2018-09-23T02:52:14.266Z,10.00
2018-09-23T02:54:43.439Z,9.90
2018-09-23T02:57:12.322Z,9.90
2018-09-23T02:59:41.849Z,9.90
2018-09-23T03:02:10.652Z,9.90
2018-09-23T03:04:41.294Z,9.90
2018-09-23T03:07:10.797Z,9.90
2018-09-23T03:09:42.371Z,9.80
2018-09-23T03:12:12.691Z,9.80
2018-09-23T03:14:42.275Z,9.90
2018-09-23T03:17:12.566Z,9.90
2018-09-23T03:19:41.320Z,9.80
2018-09-23T03:22:10.196Z,9.80
2018-09-23T03:24:38.998Z,9.80
2018-09-23T03:27:22.621Z,9.80
2018-09-23T03:29:52.243Z,9.80
2018-09-23T03:32:21.325Z,9.80
2018-09-23T03:34:51.176Z,9.80
2018-09-23T03:37:22.350Z,9.70
2018-09-23T03:39:52.723Z,9.70
2018-09-23T03:42:21.655Z,9.70
2018-09-23T03:44:50.427Z,9.70
2018-09-23T03:47:19.244Z,9.70
2018-09-23T03:49:48.029Z,9.60
2018-09-23T03:52:16.848Z,9.70
2018-09-23T03:54:45.669Z,9.70
2018-09-23T03:57:14.522Z,9.70
2018-09-23T03:59:44.127Z,9.80
2018-09-23T04:02:13.219Z,9.70
2018-09-23T04:04:42.173Z,9.70
2018-09-23T04:07:11.195Z,9.70
2018-09-23T04:09:40.007Z,9.80
2018-09-23T04:12:09.121Z,9.70
2018-09-23T04:14:37.958Z,9.60
2018-09-23T04:17:06.758Z,9.60
2018-09-23T04:19:35.538Z,9.60
2018-09-23T04:22:04.655Z,9.50
2018-09-23T04:24:33.702Z,9.50
2018-09-23T04:27:02.486Z,9.50
2018-09-23T04:29:31.509Z,9.50
2018-09-23T04:32:00.303Z,9.60
2018-09-23T04:34:29.242Z,9.60
2018-09-23T04:36:58.271Z,9.60
2018-09-23T04:39:27.162Z,9.50
2018-09-23T04:41:55.928Z,9.60
2018-09-23T04:44:24.698Z,9.60
2018-09-23T04:46:53.478Z,9.60
2018-09-23T04:49:22.399Z,9.60
2018-09-23T04:51:51.665Z,9.60
2018-09-23T04:54:20.683Z,9.60
2018-09-23T04:56:49.473Z,9.60
2018-09-23T04:59:18.500Z,9.60
2018-09-23T05:01:48.153Z,9.60
2018-09-23T05:04:17.715Z,9.60
2018-09-23T05:06:46.542Z,9.60
2018-09-23T05:09:15.307Z,9.70
2018-09-23T05:11:44.710Z,9.60
2018-09-23T05:14:13.710Z,9.60
2018-09-23T05:16:42.601Z,9.60
2018-09-23T05:19:11.515Z,9.70
2018-09-23T05:21:40.447Z,9.60
2018-09-23T05:24:09.833Z,9.50
2018-09-23T05:26:38.638Z,9.50
2018-09-23T05:29:07.453Z,9.50
2018-09-23T05:31:36.256Z,9.60
2018-09-23T05:34:05.090Z,9.50
2018-09-23T05:36:33.950Z,9.60
2018-09-23T05:39:02.875Z,9.60
2018-09-23T05:41:31.641Z,9.60
2018-09-23T05:44:00.488Z,9.70
2018-09-23T05:46:29.273Z,9.70
2018-09-23T05:48:58.842Z,9.80
2018-09-23T05:51:27.949Z,9.80
2018-09-23T05:53:58.080Z,9.90
2018-09-23T05:56:27.165Z,9.90
2018-09-23T05:58:56.019Z,9.80
2018-09-23T06:01:25.426Z,9.90
2018-09-23T06:03:54.358Z,9.90
2018-09-23T06:06:23.326Z,10.00
2018-09-23T06:08:52.194Z,10.00
2018-09-23T06:11:21.199Z,10.00
2018-09-23T06:13:50.092Z,10.10
2018-09-23T06:16:19.174Z,10.10
2018-09-23T06:18:48.405Z,10.10
2018-09-23T06:21:18.297Z,10.10
2018-09-23T06:23:48.232Z,10.10
2018-09-23T06:26:17.274Z,10.10
2018-09-23T06:28:46.771Z,10.20
2018-09-23T06:31:20.155Z,10.20
2018-09-23T06:33:50.928Z,10.20
2018-09-23T06:36:20.443Z,10.20
2018-09-23T06:38:49.562Z,10.10
2018-09-23T06:41:18.532Z,10.20
2018-09-23T06:43:47.442Z,10.20
2018-09-23T06:46:17.293Z,10.30
2018-09-23T06:48:46.289Z,10.20
2018-09-23T06:51:15.907Z,10.30
2018-09-23T06:53:44.804Z,10.30
2018-09-23T06:56:14.719Z,10.30
2018-09-23T06:58:44.299Z,10.30
2018-09-23T07:01:14.136Z,10.30
2018-09-23T07:03:43.542Z,10.30
2018-09-23T07:06:12.443Z,10.30
2018-09-23T07:08:41.917Z,10.30
2018-09-23T07:11:11.556Z,10.30
2018-09-23T07:13:41.781Z,10.40
2018-09-23T07:16:10.638Z,10.30
2018-09-23T07:18:39.491Z,10.30
2018-09-23T07:21:08.414Z,10.30
2018-09-23T07:23:38.207Z,10.40
2018-09-23T07:26:08.653Z,10.40
2018-09-23T07:28:39.304Z,10.40
2018-09-23T07:31:09.242Z,10.40
2018-09-23T07:33:39.188Z,10.40
2018-09-23T07:36:09.193Z,10.40
2018-09-23T07:38:39.037Z,10.40
2018-09-23T07:41:15.582Z,10.40
2018-09-23T07:43:46.272Z,10.60
2018-09-23T07:46:15.720Z,10.60
2018-09-23T07:48:46.687Z,10.60
2018-09-23T07:51:16.946Z,10.50
2018-09-23T07:53:47.207Z,10.40
2018-09-23T07:56:16.383Z,10.40
2018-09-23T07:58:47.305Z,10.40
2018-09-23T08:01:18.474Z,10.30
2018-09-23T08:03:47.945Z,10.40
2018-09-23T08:06:16.884Z,10.50
2018-09-23T08:08:46.564Z,10.60
2018-09-23T08:11:15.435Z,10.60
2018-09-23T08:13:45.306Z,10.80
2018-09-23T08:16:16.036Z,10.80
2018-09-23T08:19:00.106Z,11.00
2018-09-23T08:21:29.825Z,10.90
2018-09-23T08:23:59.831Z,11.00
2018-09-23T08:26:30.241Z,11.00
2018-09-23T08:28:59.182Z,11.00
2018-09-23T08:31:28.238Z,10.90
2018-09-23T08:33:57.412Z,10.90
2018-09-23T08:36:27.664Z,10.90
2018-09-23T08:38:56.785Z,10.90
2018-09-23T08:41:26.109Z,10.80
2018-09-23T08:43:56.163Z,10.80
2018-09-23T08:46:25.321Z,10.90
2018-09-23T08:48:54.429Z,10.90
2018-09-23T08:51:23.279Z,11.10
2018-09-23T08:53:52.940Z,11.00
2018-09-23T08:56:22.087Z,11.10
2018-09-23T08:58:51.295Z,11.20
2018-09-23T09:01:20.134Z,11.20
2018-09-23T09:03:49.073Z,11.20
2018-09-23T09:06:17.973Z,11.20
2018-09-23T09:08:47.443Z,11.10
2018-09-23T09:11:16.652Z,11.10
2018-09-23T09:13:48.088Z,11.00
2018-09-23T09:16:19.362Z,11.10
2018-09-23T09:18:51.127Z,11.10
2018-09-23T09:21:20.402Z,11.10
2018-09-23T09:23:50.115Z,11.00
2018-09-23T09:26:19.270Z,11.00
2018-09-23T09:28:48.193Z,11.10
2018-09-23T09:31:17.681Z,11.10
2018-09-23T09:33:47.191Z,11.20
2018-09-23T09:36:16.631Z,11.20
2018-09-23T09:38:47.168Z,11.10
2018-09-23T09:41:16.077Z,11.10
2018-09-23T09:43:52.322Z,11.20
2018-09-23T09:46:24.203Z,11.20
2018-09-23T09:48:54.098Z,11.20
2018-09-23T09:51:23.297Z,11.20
2018-09-23T09:53:53.383Z,11.20
2018-09-23T09:56:22.495Z,11.30
2018-09-23T09:58:51.666Z,11.30
2018-09-23T10:01:20.943Z,11.30
2018-09-23T10:03:49.903Z,11.40
2018-09-23T10:06:19.441Z,11.30
2018-09-23T10:08:51.436Z,11.20
2018-09-23T10:11:21.146Z,11.20
2018-09-23T10:13:50.419Z,11.10
2018-09-23T10:16:19.556Z,11.10
2018-09-23T10:18:49.257Z,11.20
2018-09-23T10:21:18.214Z,11.10
2018-09-23T10:23:47.435Z,11.20
2018-09-23T10:26:16.592Z,11.30
2018-09-23T10:28:45.628Z,11.30
2018-09-23T10:31:14.972Z,11.30
2018-09-23T10:33:44.687Z,11.30
2018-09-23T10:36:16.271Z,11.30
2018-09-23T10:38:45.767Z,11.30
2018-09-23T10:41:15.720Z,11.40
2018-09-23T10:43:45.637Z,11.30
2018-09-23T10:46:14.589Z,11.10
2018-09-23T10:48:43.467Z,11.10
2018-09-23T10:51:13.257Z,11.00
2018-09-23T10:53:43.205Z,11.10
2018-09-23T10:56:12.172Z,11.10
2018-09-23T10:58:41.835Z,11.10
2018-09-23T11:01:12.224Z,11.10
2018-09-23T11:03:42.216Z,11.00
2018-09-23T11:06:14.695Z,10.90
2018-09-23T11:08:44.250Z,10.90
2018-09-23T11:11:14.181Z,10.90
2018-09-23T11:13:43.161Z,10.90
2018-09-23T11:16:12.464Z,10.90
2018-09-23T11:18:41.489Z,10.90
2018-09-23T11:21:11.471Z,10.90
2018-09-23T11:23:41.527Z,10.90
2018-09-23T11:26:10.649Z,10.90
2018-09-23T11:28:39.607Z,10.80
2018-09-23T11:31:08.719Z,10.90
2018-09-23T11:33:37.723Z,10.90
2018-09-23T11:36:08.459Z,10.90
2018-09-23T11:38:40.590Z,10.90
2018-09-23T11:41:09.456Z,10.90
2018-09-23T11:43:39.523Z,11.00
2018-09-23T11:46:08.637Z,11.00
2018-09-23T11:48:37.427Z,11.00
2018-09-23T11:51:06.498Z,10.90
2018-09-23T11:53:36.953Z,10.90
2018-09-23T11:56:07.588Z,11.00
2018-09-23T11:58:37.561Z,11.00
2018-09-23T12:01:08.196Z,11.00
2018-09-23T12:03:37.162Z,11.00
2018-09-23T12:06:06.187Z,11.00
2018-09-23T12:08:35.991Z,11.10
2018-09-23T12:11:05.424Z,11.00
2018-09-23T12:13:34.934Z,11.00
2018-09-23T12:16:05.254Z,11.00
2018-09-23T12:21:09.340Z,11.00
2018-09-23T12:23:38.417Z,11.00
2018-09-23T12:26:11.557Z,10.90
2018-09-23T12:28:42.457Z,10.80
2018-09-23T12:31:12.408Z,10.80
2018-09-23T12:33:45.483Z,10.80
2018-09-23T12:36:15.779Z,10.80
2018-09-23T12:38:45.207Z,10.80
2018-09-23T12:41:14.931Z,10.80
2018-09-23T12:43:44.350Z,10.80
2018-09-23T12:46:14.272Z,10.70
2018-09-23T12:48:43.261Z,10.70
2018-09-23T12:51:12.533Z,10.60
2018-09-23T12:53:42.682Z,10.50
2018-09-23T12:56:13.158Z,10.60
2018-09-23T12:58:42.678Z,10.50
2018-09-23T13:01:13.956Z,10.50
2018-09-23T13:03:43.682Z,10.50
2018-09-23T13:06:14.661Z,10.40
2018-09-23T13:08:44.668Z,10.50
2018-09-23T13:11:17.362Z,10.50
2018-09-23T13:13:50.154Z,10.40
2018-09-23T13:16:21.426Z,10.40
2018-09-23T13:18:50.510Z,10.40
2018-09-23T13:21:21.674Z,10.40
2018-09-23T13:23:51.214Z,10.40
2018-09-23T13:26:21.466Z,10.40
2018-09-23T13:28:51.729Z,10.40
2018-09-23T13:31:24.539Z,10.40
2018-09-23T13:33:53.650Z,10.40
2018-09-23T13:36:23.537Z,10.40
2018-09-23T13:38:56.624Z,10.40
2018-09-23T13:41:26.373Z,10.40
2018-09-23T13:43:56.166Z,10.30
2018-09-23T13:46:25.899Z,10.30
2018-09-23T13:48:56.316Z,10.30
2018-09-23T13:51:26.953Z,10.30
2018-09-23T13:53:56.633Z,10.30
2018-09-23T13:56:29.151Z,10.20
2018-09-23T13:59:00.674Z,10.30
2018-09-23T14:01:30.295Z,10.30
2018-09-23T14:04:00.452Z,10.20
2018-09-23T14:06:30.109Z,10.20
2018-09-23T14:08:59.157Z,10.20
2018-09-23T14:11:28.412Z,10.20
2018-09-23T14:13:59.171Z,10.20
2018-09-23T14:16:29.154Z,10.30
2018-09-23T14:18:57.973Z,10.30
2018-09-23T14:21:27.815Z,10.20
2018-09-23T14:23:56.623Z,10.30
2018-09-23T14:26:27.175Z,10.30
2018-09-23T14:28:57.285Z,10.20
2018-09-23T14:31:26.225Z,10.20
2018-09-23T14:33:56.170Z,10.20
2018-09-23T14:36:25.548Z,10.10
2018-09-23T14:38:55.882Z,10.10
2018-09-23T14:41:24.939Z,10.10
2018-09-23T14:43:54.688Z,10.00
2018-09-23T14:46:25.221Z,10.00
2018-09-23T14:48:56.466Z,10.00
2018-09-23T14:51:26.199Z,10.00
2018-09-23T14:53:55.337Z,9.90
2018-09-23T14:56:25.423Z,9.90
2018-09-23T14:58:54.982Z,9.90
2018-09-23T15:01:25.946Z,9.80
2018-09-23T15:03:54.765Z,9.80
2018-09-23T15:06:25.783Z,9.60
2018-09-23T15:08:56.455Z,9.50
2018-09-23T15:11:25.341Z,9.50
2018-09-23T15:13:54.454Z,9.50
2018-09-23T15:16:23.603Z,9.40
2018-09-23T15:18:53.487Z,9.40
2018-09-23T15:21:29.621Z,9.40
2018-09-23T15:23:58.634Z,9.40
2018-09-23T15:26:28.671Z,9.40
2018-09-23T15:28:59.165Z,9.40
2018-09-23T15:31:28.168Z,9.30
2018-09-23T15:33:57.079Z,9.40
2018-09-23T15:36:25.899Z,9.30
2018-09-23T15:38:55.180Z,9.30
2018-09-23T15:41:28.686Z,9.40
2018-09-23T15:43:57.508Z,9.30
2018-09-23T15:46:29.667Z,9.30
2018-09-23T15:49:01.153Z,9.30
2018-09-23T15:51:30.421Z,9.30
2018-09-23T15:54:00.286Z,9.30
2018-09-23T15:56:34.575Z,9.40
2018-09-23T15:59:08.408Z,9.40
2018-09-23T16:01:42.146Z,9.40
2018-09-23T16:04:11.945Z,9.40
2018-09-23T16:06:41.153Z,9.40
2018-09-23T16:09:10.595Z,9.40
2018-09-23T16:11:42.495Z,9.40
2018-09-23T16:14:15.451Z,9.30
2018-09-23T16:16:44.690Z,9.30
2018-09-23T16:19:15.516Z,9.30
2018-09-23T16:21:48.311Z,9.30
2018-09-23T16:24:17.501Z,9.30
2018-09-23T16:26:47.668Z,9.30
2018-09-23T16:29:19.907Z,9.30
2018-09-23T16:31:57.139Z,9.40
2018-09-23T16:34:29.345Z,9.40
2018-09-23T16:37:04.709Z,9.30
2018-09-23T16:39:35.383Z,9.30
2018-09-23T16:42:05.278Z,9.20
2018-09-23T16:44:35.334Z,9.20
2018-09-23T16:47:06.019Z,9.20
2018-09-23T16:49:37.294Z,9.20
2018-09-23T16:52:09.568Z,9.20
2018-09-23T16:54:39.728Z,9.20
2018-09-23T16:57:11.588Z,9.20
2018-09-23T16:59:54.410Z,9.20
2018-09-23T17:02:25.667Z,9.20
2018-09-23T17:04:56.550Z,9.10
2018-09-23T17:07:27.133Z,9.10
2018-09-23T17:09:57.199Z,9.10
2018-09-23T17:12:28.298Z,9.00
2018-09-23T17:15:01.181Z,8.90
2018-09-23T17:17:31.247Z,8.80
2018-09-23T17:20:02.179Z,8.70
2018-09-23T17:22:35.189Z,8.60
2018-09-23T17:25:04.525Z,8.50
2018-09-23T17:27:37.568Z,8.50
2018-09-23T17:30:09.242Z,8.40
2018-09-23T17:32:39.159Z,8.20
2018-09-23T17:35:17.835Z,8.20
2018-09-23T17:37:48.232Z,8.20
2018-09-23T17:40:20.693Z,8.10
2018-09-23T17:42:51.702Z,8.10
2018-09-23T17:45:20.942Z,8.10
2018-09-23T17:47:51.390Z,8.10
2018-09-23T17:50:21.921Z,8.00
2018-09-23T17:52:51.226Z,8.00
2018-09-23T17:55:20.165Z,8.00
2018-09-23T17:57:50.190Z,8.00
2018-09-23T18:00:21.461Z,7.90
2018-09-23T18:02:50.577Z,8.00
2018-09-23T18:05:20.639Z,8.00
2018-09-23T18:07:49.972Z,7.90
2018-09-23T18:10:19.358Z,7.90
2018-09-23T18:12:51.472Z,7.90
2018-09-23T18:15:26.555Z,7.80
2018-09-23T18:17:55.593Z,7.80
2018-09-23T18:20:25.218Z,7.90
2018-09-23T18:22:55.635Z,7.90
2018-09-23T18:25:25.644Z,7.90
2018-09-23T18:27:56.086Z,7.80
2018-09-23T18:30:24.965Z,7.80
2018-09-23T18:32:54.322Z,7.80
2018-09-23T18:35:28.793Z,7.90
2018-09-23T18:38:00.792Z,7.80
2018-09-23T18:40:30.327Z,7.80
2018-09-23T18:42:59.930Z,7.80
2018-09-23T18:45:31.300Z,7.80
2018-09-23T18:48:01.061Z,7.80
2018-09-23T18:50:30.850Z,7.80
2018-09-23T18:53:05.696Z,7.80
2018-09-23T18:55:40.756Z,7.80
2018-09-23T18:58:13.585Z,7.80
2018-09-23T19:00:45.564Z,7.80
2018-09-23T19:03:18.602Z,7.80
2018-09-23T19:05:48.655Z,7.80
2018-09-23T19:08:19.394Z,7.80
2018-09-23T19:10:48.271Z,7.80
2018-09-23T19:13:23.173Z,7.80
2018-09-23T19:15:57.340Z,7.80
2018-09-23T19:18:28.219Z,7.70
2018-09-23T19:21:00.773Z,7.70
2018-09-23T19:23:30.496Z,7.80
2018-09-23T19:26:01.601Z,7.80
2018-09-23T19:28:33.503Z,7.70
2018-09-23T19:31:02.923Z,7.80
2018-09-23T19:33:33.152Z,7.80
2018-09-23T19:36:03.785Z,7.80
2018-09-23T19:38:33.216Z,7.80
2018-09-23T19:41:03.830Z,7.80
2018-09-23T19:43:33.147Z,7.80
2018-09-23T19:46:06.110Z,7.80
2018-09-23T19:48:37.565Z,7.80
2018-09-23T19:51:06.950Z,7.80
2018-09-23T19:53:35.910Z,7.80
2018-09-23T19:56:05.673Z,7.80
2018-09-23T19:58:35.092Z,7.80
2018-09-23T20:05:34.203Z,7.90
2018-09-23T20:12:36.745Z,7.90
2018-09-23T20:15:06.164Z,7.90
2018-09-23T20:22:08.219Z,7.90
2018-09-23T20:24:37.570Z,7.80
2018-09-23T20:27:06.692Z,7.80
2018-09-23T20:29:36.642Z,7.80
2018-09-23T20:32:05.868Z,7.70
2018-09-23T20:34:35.641Z,7.70
2018-09-23T20:37:06.185Z,7.70
2018-09-23T20:39:41.266Z,7.70
2018-09-23T20:42:11.090Z,7.70
2018-09-23T20:44:40.160Z,7.70
2018-09-23T20:47:09.386Z,7.80
2018-09-23T20:49:39.417Z,7.80
2018-09-23T20:52:09.154Z,7.80
2018-09-23T20:54:40.835Z,7.80
2018-09-23T20:57:09.801Z,7.80
2018-09-23T20:59:39.481Z,7.70
2018-09-23T21:02:09.692Z,7.70
2018-09-23T21:04:39.530Z,7.70
2018-09-23T21:07:11.657Z,7.70
2018-09-23T21:09:46.027Z,7.70
2018-09-23T21:12:16.710Z,7.70
2018-09-23T21:14:46.084Z,7.70
2018-09-23T21:17:17.285Z,7.80
2018-09-23T21:19:47.287Z,7.80
2018-09-23T21:22:16.234Z,7.80
2018-09-23T21:24:46.703Z,7.80
2018-09-23T21:27:18.348Z,7.80
2018-09-23T21:29:48.167Z,7.80
2018-09-23T21:32:17.301Z,7.80
2018-09-23T21:34:46.347Z,7.80
2018-09-23T21:37:15.220Z,7.80
2018-09-23T21:41:04.165Z,7.80
2018-09-23T21:43:34.088Z,7.80
2018-09-23T21:46:03.736Z,7.90
2018-09-23T21:48:33.840Z,8.00
2018-09-23T21:51:02.726Z,8.00
2018-09-23T21:53:31.674Z,8.00
2018-09-23T21:56:01.206Z,8.00
2018-09-23T21:58:30.411Z,8.00
2018-09-23T22:01:00.544Z,8.00
2018-09-23T22:03:29.486Z,8.00
2018-09-23T22:06:00.833Z,8.00
2018-09-23T22:08:30.005Z,8.00
2018-09-23T22:10:59.289Z,8.10
2018-09-23T22:13:28.345Z,8.10
2018-09-23T22:15:57.238Z,8.10
2018-09-23T22:18:26.340Z,8.10
2018-09-23T22:20:55.273Z,8.10
2018-09-23T22:23:25.998Z,8.10
2018-09-23T22:25:55.830Z,8.10
2018-09-23T22:28:24.918Z,8.20
2018-09-23T22:30:53.979Z,8.20
2018-09-23T22:33:23.413Z,8.20
2018-09-23T22:35:53.160Z,8.20
2018-09-23T22:38:22.177Z,8.20
2018-09-23T22:40:51.062Z,8.20
2018-09-23T22:43:19.987Z,8.20
2018-09-23T22:45:48.864Z,8.20
2018-09-23T22:48:19.152Z,8.20
2018-09-23T22:50:48.330Z,8.20
2018-09-23T22:53:17.159Z,8.20
2018-09-23T22:55:47.977Z,8.20
2018-09-23T22:58:17.151Z,8.10
2018-09-23T23:00:46.075Z,8.10
2018-09-23T23:03:15.271Z,8.10
2018-09-23T23:05:44.243Z,8.10
2018-09-23T23:08:13.064Z,8.00
2018-09-23T23:10:41.926Z,8.00
2018-09-23T23:13:10.798Z,8.10
2018-09-23T23:15:39.658Z,8.00
2018-09-23T23:18:10.957Z,8.00
2018-09-23T23:20:39.810Z,8.00
2018-09-23T23:23:08.611Z,8.00
2018-09-23T23:25:38.146Z,7.90
2018-09-23T23:28:10.191Z,8.00
2018-09-23T23:30:39.667Z,8.00
2018-09-23T23:33:09.546Z,8.00
2018-09-23T23:35:39.320Z,7.90
2018-09-23T23:38:08.516Z,7.90
2018-09-23T23:40:38.470Z,7.90
2018-09-23T23:43:07.977Z,7.90
2018-09-23T23:45:37.166Z,7.90
2018-09-23T23:48:06.279Z,7.90
2018-09-23T23:50:35.241Z,7.80
2018-09-23T23:53:04.261Z,7.80
